createdAt,value
2018-09-14T00:00:57.117Z,9.00
2018-09-14T00:03:26.253Z,9.00
2018-09-14T00:05:55.455Z,9.00
2018-09-14T00:08:25.355Z,9.00
2018-09-14T00:10:55.471Z,9.00
2018-09-14T00:13:25.888Z,9.00
2018-09-14T00:15:55.074Z,9.00
2018-09-14T00:18:24.187Z,9.00
2018-09-14T00:20:53.314Z,8.90
2018-09-14T00:23:22.717Z,8.90
2018-09-14T00:25:51.884Z,8.90
2018-09-14T00:28:21.735Z,8.90
2018-09-14T00:30:51.304Z,8.90
2018-09-14T00:33:20.436Z,8.90
2018-09-14T00:35:49.673Z,8.80
2018-09-14T00:38:18.960Z,8.90
2018-09-14T00:40:48.081Z,8.90
2018-09-14T00:43:17.269Z,8.90
2018-09-14T00:45:46.398Z,8.80
2018-09-14T00:48:15.504Z,8.80
2018-09-14T00:50:44.760Z,8.80
2018-09-14T00:53:13.896Z,8.80
2018-09-14T00:55:43.084Z,8.80
2018-09-14T00:58:12.264Z,8.80
2018-09-14T01:00:41.416Z,8.90
2018-09-14T01:03:10.539Z,9.00
2018-09-14T01:05:39.669Z,9.00
2018-09-14T01:08:08.803Z,9.10
2018-09-14T01:10:37.900Z,9.10
2018-09-14T01:13:07.088Z,9.20
2018-09-14T01:15:36.275Z,9.30
2018-09-14T01:18:05.435Z,9.30
2018-09-14T01:20:34.592Z,9.30
2018-09-14T01:23:03.780Z,9.30
2018-09-14T01:25:32.990Z,9.20
2018-09-14T01:28:02.097Z,9.20
2018-09-14T01:30:31.412Z,9.20
2018-09-14T01:33:00.539Z,9.30
2018-09-14T01:35:35.031Z,9.30
2018-09-14T01:38:04.207Z,9.30
2018-09-14T01:40:33.324Z,9.30
2018-09-14T01:43:02.481Z,9.40
2018-09-14T01:45:31.617Z,9.40
2018-09-14T01:48:00.727Z,9.40
2018-09-14T01:50:29.989Z,9.40
2018-09-14T01:52:59.144Z,9.50
2018-09-14T01:55:28.345Z,9.50
2018-09-14T01:57:57.585Z,9.50
2018-09-14T02:00:26.824Z,9.60
2018-09-14T02:02:55.915Z,9.60
2018-09-14T02:05:25.064Z,9.60
2018-09-14T02:07:54.171Z,9.60
2018-09-14T02:10:24.196Z,9.60
2018-09-14T02:12:54.136Z,9.60
2018-09-14T02:15:23.400Z,9.50
2018-09-14T02:17:52.624Z,9.40
2018-09-14T02:20:21.903Z,9.40
2018-09-14T02:22:51.249Z,9.30
2018-09-14T02:25:20.488Z,9.30
2018-09-14T02:27:49.719Z,9.40
2018-09-14T02:30:18.997Z,9.40
2018-09-14T02:32:48.163Z,9.40
2018-09-14T02:35:17.453Z,9.40
2018-09-14T02:37:46.685Z,9.40
2018-09-14T02:40:15.960Z,9.40
2018-09-14T02:42:45.207Z,9.40
2018-09-14T02:45:14.425Z,9.40
2018-09-14T02:47:43.795Z,9.40
2018-09-14T02:50:13.028Z,9.40
2018-09-14T02:52:42.285Z,9.40
2018-09-14T02:55:11.616Z,9.40
2018-09-14T02:57:41.842Z,9.40
2018-09-14T03:00:11.247Z,9.40
2018-09-14T03:02:40.476Z,9.40
2018-09-14T03:05:10.001Z,9.40
2018-09-14T03:07:39.224Z,9.40
2018-09-14T03:10:08.496Z,9.30
2018-09-14T03:12:37.737Z,9.30
2018-09-14T03:15:07.034Z,9.20
2018-09-14T03:17:36.951Z,9.30
2018-09-14T03:20:06.273Z,9.30
2018-09-14T03:22:35.527Z,9.30
2018-09-14T03:25:04.758Z,9.30
2018-09-14T03:27:34.062Z,9.30
2018-09-14T03:30:03.370Z,9.30
2018-09-14T03:32:32.623Z,9.20
2018-09-14T03:35:01.893Z,9.20
2018-09-14T03:37:32.059Z,9.20
2018-09-14T03:40:01.282Z,9.20
2018-09-14T03:42:30.600Z,9.10
2018-09-14T03:44:59.895Z,9.00
2018-09-14T03:47:29.589Z,9.00
2018-09-14T03:49:58.864Z,8.90
2018-09-14T03:52:28.067Z,8.90
2018-09-14T03:54:57.329Z,8.80
2018-09-14T03:57:26.646Z,8.80
2018-09-14T03:59:55.765Z,8.80
2018-09-14T04:02:25.008Z,8.80
2018-09-14T04:04:54.231Z,8.70
2018-09-14T04:07:23.508Z,8.70
2018-09-14T04:09:52.727Z,8.70
2018-09-14T04:12:21.939Z,8.70
2018-09-14T04:14:51.208Z,8.70
2018-09-14T04:17:20.468Z,8.70
2018-09-14T04:19:49.736Z,8.70
2018-09-14T04:22:19.123Z,8.60
2018-09-14T04:24:48.369Z,8.60
2018-09-14T04:27:17.669Z,8.60
2018-09-14T04:29:47.518Z,8.60
2018-09-14T04:32:16.733Z,8.60
2018-09-14T04:34:45.987Z,8.70
2018-09-14T04:37:15.257Z,8.80
2018-09-14T04:39:44.477Z,8.70
2018-09-14T04:42:13.797Z,8.70
2018-09-14T04:44:43.051Z,8.60
2018-09-14T04:47:12.269Z,8.60
2018-09-14T04:49:42.281Z,8.60
2018-09-14T04:52:11.526Z,8.60
2018-09-14T04:54:40.718Z,8.60
2018-09-14T04:57:09.973Z,8.50
2018-09-14T04:59:39.228Z,8.50
2018-09-14T05:02:08.489Z,8.50
2018-09-14T05:04:37.948Z,8.50
2018-09-14T05:07:07.181Z,8.50
2018-09-14T05:09:37.105Z,8.50
2018-09-14T05:12:06.488Z,8.50
2018-09-14T05:14:35.788Z,8.60
2018-09-14T05:17:05.235Z,8.60
2018-09-14T05:19:34.503Z,8.60
2018-09-14T05:22:03.771Z,8.60
2018-09-14T05:24:33.178Z,8.60
2018-09-14T05:27:02.482Z,8.60
2018-09-14T05:29:31.834Z,8.60
2018-09-14T05:32:01.171Z,8.60
2018-09-14T05:34:30.403Z,8.70
2018-09-14T05:36:59.794Z,8.90
2018-09-14T05:39:29.145Z,9.00
2018-09-14T05:41:58.450Z,9.20
2018-09-14T05:44:27.679Z,9.30
2018-09-14T05:46:56.925Z,9.30
2018-09-14T05:49:26.158Z,9.40
2018-09-14T05:51:55.437Z,9.40
2018-09-14T05:54:24.705Z,9.50
2018-09-14T05:56:53.992Z,9.50
2018-09-14T05:59:23.299Z,9.60
2018-09-14T06:01:52.549Z,9.70
2018-09-14T06:04:21.841Z,9.80
2018-09-14T06:06:51.056Z,9.80
2018-09-14T06:09:20.304Z,9.90
2018-09-14T06:11:49.540Z,9.90
2018-09-14T06:14:18.812Z,9.90
2018-09-14T06:16:48.056Z,10.00
2018-09-14T06:19:17.383Z,10.00
2018-09-14T06:21:46.606Z,10.10
2018-09-14T06:24:15.869Z,10.20
2018-09-14T06:26:45.089Z,10.30
2018-09-14T06:29:14.339Z,10.40
2018-09-14T06:31:43.646Z,10.50
2018-09-14T06:34:13.043Z,10.60
2018-09-14T06:36:42.279Z,10.80
2018-09-14T06:39:12.671Z,11.00
2018-09-14T06:41:41.931Z,11.20
2018-09-14T06:44:11.200Z,11.30
2018-09-14T06:46:40.431Z,11.60
2018-09-14T06:49:09.693Z,11.80
2018-09-14T06:51:39.641Z,11.90
2018-09-14T06:54:09.492Z,12.00
2018-09-14T06:56:38.726Z,12.00
2018-09-14T06:59:08.249Z,12.00
2018-09-14T07:01:37.510Z,12.00
2018-09-14T07:04:06.819Z,12.00
2018-09-14T07:06:36.219Z,12.10
2018-09-14T07:09:07.423Z,12.10
2018-09-14T07:11:36.715Z,12.20
2018-09-14T07:14:06.206Z,12.50
2018-09-14T07:16:35.707Z,12.60
2018-09-14T07:19:04.988Z,12.70
2018-09-14T07:21:34.238Z,12.80
2018-09-14T07:24:03.479Z,13.00
2018-09-14T07:26:32.788Z,13.20
2018-09-14T07:29:02.056Z,13.40
2018-09-14T07:31:31.906Z,13.40
2018-09-14T07:34:01.280Z,13.60
2018-09-14T07:36:30.575Z,13.80
2018-09-14T07:38:59.873Z,14.00
2018-09-14T07:41:29.252Z,14.20
2018-09-14T07:43:58.483Z,14.20
2018-09-14T07:46:27.741Z,14.20
2018-09-14T07:48:56.996Z,14.10
2018-09-14T07:51:26.228Z,14.10
2018-09-14T07:53:55.465Z,14.10
2018-09-14T07:56:24.908Z,14.00
2018-09-14T07:58:54.904Z,14.00
2018-09-14T08:01:24.965Z,13.90
2018-09-14T08:03:54.203Z,14.00
2018-09-14T08:06:23.491Z,14.00
2018-09-14T08:08:52.718Z,14.00
2018-09-14T08:11:22.944Z,13.90
2018-09-14T08:13:52.187Z,13.90
2018-09-14T08:16:21.436Z,13.90
2018-09-14T08:18:51.523Z,13.90
2018-09-14T08:21:21.730Z,13.80
2018-09-14T08:23:50.920Z,13.80
2018-09-14T08:26:20.185Z,13.80
2018-09-14T08:28:49.432Z,13.80
2018-09-14T08:31:18.689Z,13.80
2018-09-14T08:33:47.999Z,13.80
2018-09-14T08:36:17.339Z,13.80
2018-09-14T08:38:46.610Z,13.80
2018-09-14T08:41:16.504Z,13.70
2018-09-14T08:43:45.895Z,13.70
2018-09-14T08:46:15.269Z,13.70
2018-09-14T08:48:44.484Z,13.60
2018-09-14T08:51:14.365Z,13.60
2018-09-14T08:53:43.646Z,13.60
2018-09-14T08:56:12.896Z,13.60
2018-09-14T08:58:42.768Z,13.60
2018-09-14T09:01:12.111Z,13.60
2018-09-14T09:03:41.441Z,13.60
2018-09-14T09:06:10.758Z,13.70
2018-09-14T09:08:40.012Z,13.70
2018-09-14T09:11:09.317Z,13.70
2018-09-14T09:13:38.561Z,13.70
2018-09-14T09:16:07.950Z,13.70
2018-09-14T09:18:37.753Z,13.80
2018-09-14T09:21:07.012Z,13.90
2018-09-14T09:23:36.250Z,14.00
2018-09-14T09:26:05.616Z,14.10
2018-09-14T09:28:34.844Z,14.20
2018-09-14T09:31:04.192Z,14.30
2018-09-14T09:33:33.528Z,14.40
2018-09-14T09:36:02.845Z,14.40
2018-09-14T09:38:32.133Z,14.40
2018-09-14T09:41:01.484Z,14.40
2018-09-14T09:43:30.935Z,14.50
2018-09-14T09:46:00.064Z,14.50
2018-09-14T09:48:29.345Z,14.50
2018-09-14T09:50:58.621Z,14.50
2018-09-14T09:53:27.891Z,14.40
2018-09-14T09:55:57.141Z,14.40
2018-09-14T09:58:26.470Z,14.50
2018-09-14T10:01:01.271Z,14.60
2018-09-14T10:03:35.770Z,14.60
2018-09-14T10:06:10.523Z,14.70
2018-09-14T10:08:39.769Z,14.70
2018-09-14T10:11:09.012Z,14.70
2018-09-14T10:13:38.256Z,14.70
2018-09-14T10:16:07.510Z,14.80
2018-09-14T10:18:36.751Z,14.80
2018-09-14T10:21:06.504Z,14.80
2018-09-14T10:23:35.762Z,14.90
2018-09-14T10:26:05.194Z,14.90
2018-09-14T10:28:34.422Z,15.00
2018-09-14T10:31:03.723Z,15.10
2018-09-14T10:33:32.962Z,15.10
2018-09-14T10:36:02.384Z,15.10
2018-09-14T10:38:31.823Z,15.20
2018-09-14T10:41:01.063Z,15.10
2018-09-14T10:43:31.116Z,15.10
2018-09-14T10:46:00.348Z,15.20
2018-09-14T10:48:29.658Z,15.10
2018-09-14T10:50:59.187Z,15.20
2018-09-14T10:53:28.487Z,15.20
2018-09-14T10:55:58.435Z,15.20
2018-09-14T10:58:31.948Z,15.20
2018-09-14T11:01:02.201Z,15.20
2018-09-14T11:03:31.433Z,15.30
2018-09-14T11:06:01.343Z,15.30
2018-09-14T11:08:30.640Z,15.40
2018-09-14T11:10:59.997Z,15.40
2018-09-14T11:13:29.363Z,15.50
2018-09-14T11:15:58.659Z,15.50
2018-09-14T11:18:28.313Z,15.60
2018-09-14T11:20:57.657Z,15.70
2018-09-14T11:23:26.966Z,15.80
2018-09-14T11:25:56.329Z,15.80
2018-09-14T11:28:25.632Z,15.90
2018-09-14T11:30:54.856Z,15.90
2018-09-14T11:33:24.108Z,16.00
2018-09-14T11:35:53.360Z,16.00
2018-09-14T11:38:22.661Z,16.10
2018-09-14T11:40:52.019Z,16.00
2018-09-14T11:43:21.325Z,16.10
2018-09-14T11:45:50.621Z,16.10
2018-09-14T11:48:19.847Z,16.20
2018-09-14T11:50:49.169Z,16.30
2018-09-14T11:53:18.436Z,16.50
2018-09-14T11:55:47.776Z,16.60
2018-09-14T11:58:17.064Z,16.60
2018-09-14T12:00:47.069Z,16.70
2018-09-14T12:03:16.284Z,16.70
2018-09-14T12:05:45.557Z,17.00
2018-09-14T12:08:14.837Z,16.70
2018-09-14T12:10:44.087Z,16.80
2018-09-14T12:13:13.552Z,16.90
2018-09-14T12:15:42.888Z,16.90
2018-09-14T12:18:12.101Z,17.00
2018-09-14T12:20:41.444Z,17.00
2018-09-14T12:23:10.689Z,17.10
2018-09-14T12:25:39.990Z,17.20
2018-09-14T12:28:10.192Z,17.10
2018-09-14T12:30:39.619Z,17.00
2018-09-14T12:33:09.384Z,17.10
2018-09-14T12:35:38.695Z,17.10
2018-09-14T12:38:08.038Z,17.10
2018-09-14T12:40:37.300Z,17.20
2018-09-14T12:43:06.793Z,17.20
2018-09-14T12:45:36.065Z,17.40
2018-09-14T12:48:05.552Z,17.50
2018-09-14T12:50:34.827Z,17.50
2018-09-14T12:53:04.098Z,17.40
2018-09-14T12:55:33.352Z,17.50
2018-09-14T12:58:02.591Z,17.40
2018-09-14T13:00:32.223Z,17.50
2018-09-14T13:03:01.549Z,17.60
2018-09-14T13:05:31.037Z,17.50
2018-09-14T13:08:00.278Z,17.60
2018-09-14T13:10:29.591Z,17.60
2018-09-14T13:12:58.839Z,17.60
2018-09-14T13:15:28.092Z,17.70
2018-09-14T13:17:57.337Z,17.80
2018-09-14T13:20:26.591Z,17.90
2018-09-14T13:22:55.890Z,18.10
2018-09-14T13:25:25.163Z,18.10
2018-09-14T13:27:54.471Z,18.10
2018-09-14T13:30:24.426Z,18.00
2018-09-14T13:32:54.087Z,18.10
2018-09-14T13:35:24.503Z,18.10
2018-09-14T13:37:54.312Z,18.00
2018-09-14T13:40:30.605Z,18.10
2018-09-14T13:42:59.831Z,18.10
2018-09-14T13:45:29.115Z,18.00
2018-09-14T13:47:58.500Z,18.20
2018-09-14T13:50:27.787Z,18.30
2018-09-14T13:52:57.066Z,18.40
2018-09-14T13:55:26.287Z,18.50
2018-09-14T13:57:55.512Z,18.50
2018-09-14T14:00:24.742Z,18.60
2018-09-14T14:02:54.075Z,18.50
2018-09-14T14:05:24.078Z,18.60
2018-09-14T14:07:53.396Z,18.50
2018-09-14T14:10:22.681Z,18.50
2018-09-14T14:12:51.927Z,18.40
2018-09-14T14:15:21.260Z,18.40
2018-09-14T14:17:50.615Z,18.40
2018-09-14T14:20:19.904Z,18.30
2018-09-14T14:22:49.263Z,18.30
2018-09-14T14:25:18.564Z,18.30
2018-09-14T14:27:47.826Z,18.10
2018-09-14T14:30:18.192Z,17.90
2018-09-14T14:32:47.560Z,17.90
2018-09-14T14:35:16.791Z,17.90
2018-09-14T14:37:46.025Z,17.80
2018-09-14T14:40:15.258Z,17.80
2018-09-14T14:42:45.307Z,17.70
2018-09-14T14:45:15.832Z,17.80
2018-09-14T14:47:45.393Z,17.80
2018-09-14T14:50:14.615Z,17.90
2018-09-14T14:52:43.924Z,17.80
2018-09-14T14:55:13.200Z,17.90
2018-09-14T14:57:42.588Z,17.90
2018-09-14T15:00:11.993Z,18.00
2018-09-14T15:02:41.273Z,17.90
2018-09-14T15:05:10.533Z,17.80
2018-09-14T15:07:39.902Z,17.80
2018-09-14T15:10:09.160Z,17.70
2018-09-14T15:12:38.913Z,17.60
2018-09-14T15:15:08.320Z,17.60
2018-09-14T15:17:37.528Z,17.60
2018-09-14T15:20:07.556Z,17.50
2018-09-14T15:22:36.781Z,17.50
2018-09-14T15:25:06.174Z,17.40
2018-09-14T15:27:36.193Z,17.30
2018-09-14T15:30:05.482Z,17.20
2018-09-14T15:32:34.749Z,17.10
2018-09-14T15:35:04.034Z,17.10
2018-09-14T15:37:33.274Z,17.00
2018-09-14T15:40:02.550Z,16.90
2018-09-14T15:42:32.785Z,16.90
2018-09-14T15:45:02.165Z,16.80
2018-09-14T15:47:32.026Z,16.80
2018-09-14T15:50:01.269Z,16.70
2018-09-14T15:52:30.632Z,16.70
2018-09-14T15:54:59.942Z,16.70
2018-09-14T15:57:29.262Z,16.70
2018-09-14T15:59:58.547Z,16.70
2018-09-14T16:02:27.892Z,16.60
2018-09-14T16:04:57.523Z,16.70
2018-09-14T16:07:26.742Z,16.60
2018-09-14T16:09:56.039Z,16.60
2018-09-14T16:12:25.304Z,16.60
2018-09-14T16:14:55.123Z,16.60
2018-09-14T16:17:24.509Z,16.50
2018-09-14T16:19:53.797Z,16.50
2018-09-14T16:22:23.073Z,16.50
2018-09-14T16:24:52.341Z,16.50
2018-09-14T16:27:21.593Z,16.40
2018-09-14T16:29:50.851Z,16.40
2018-09-14T16:32:20.137Z,16.40
2018-09-14T16:34:49.381Z,16.40
2018-09-14T16:37:18.731Z,16.30
2018-09-14T16:39:47.985Z,16.30
2018-09-14T16:42:17.229Z,16.30
2018-09-14T16:44:46.475Z,16.20
2018-09-14T16:47:15.866Z,16.20
2018-09-14T16:49:48.024Z,16.10
2018-09-14T16:52:17.300Z,16.20
2018-09-14T16:54:46.522Z,16.10
2018-09-14T16:57:15.963Z,16.10
2018-09-14T16:59:45.169Z,16.10
2018-09-14T17:02:14.432Z,16.00
2018-09-14T17:04:43.697Z,16.00
2018-09-14T17:07:12.923Z,16.00
2018-09-14T17:09:42.192Z,15.90
2018-09-14T17:12:11.419Z,15.90
2018-09-14T17:14:40.819Z,15.80
2018-09-14T17:17:10.127Z,15.70
2018-09-14T17:19:40.175Z,15.70
2018-09-14T17:22:10.133Z,15.60
2018-09-14T17:24:39.389Z,15.60
2018-09-14T17:27:08.936Z,15.50
2018-09-14T17:29:38.153Z,15.40
2018-09-14T17:32:08.140Z,15.40
2018-09-14T17:34:38.159Z,15.30
2018-09-14T17:37:08.191Z,15.30
2018-09-14T17:39:37.517Z,15.20
2018-09-14T17:42:06.902Z,15.10
2018-09-14T17:44:36.207Z,15.10
2018-09-14T17:47:05.583Z,15.00
2018-09-14T17:49:34.906Z,14.90
2018-09-14T17:52:04.280Z,14.90
2018-09-14T17:54:34.827Z,14.80
2018-09-14T17:57:04.215Z,14.70
2018-09-14T17:59:33.464Z,14.60
2018-09-14T18:02:02.764Z,14.60
2018-09-14T18:04:32.068Z,14.50
2018-09-14T18:07:01.338Z,14.50
2018-09-14T18:09:30.666Z,14.40
2018-09-14T18:11:59.960Z,14.40
2018-09-14T18:14:29.764Z,14.40
2018-09-14T18:17:00.041Z,14.40
2018-09-14T18:19:29.881Z,14.40
2018-09-14T18:21:59.326Z,14.40
2018-09-14T18:24:28.527Z,14.30
2018-09-14T18:26:57.810Z,14.30
2018-09-14T18:29:27.080Z,14.30
2018-09-14T18:31:56.382Z,14.40
2018-09-14T18:34:26.330Z,14.40
2018-09-14T18:36:55.641Z,14.40
2018-09-14T18:39:24.960Z,14.40
2018-09-14T18:41:54.190Z,14.30
2018-09-14T18:44:23.442Z,14.30
2018-09-14T18:46:52.758Z,14.30
2018-09-14T18:49:22.045Z,14.30
2018-09-14T18:51:51.420Z,14.30
2018-09-14T18:54:20.752Z,14.30
2018-09-14T18:56:50.074Z,14.20
2018-09-14T18:59:19.346Z,14.20
2018-09-14T19:01:48.605Z,14.10
2018-09-14T19:04:17.905Z,14.10
2018-09-14T19:06:47.158Z,14.10
2018-09-14T19:09:16.517Z,14.00
2018-09-14T19:11:45.785Z,13.90
2018-09-14T19:14:15.028Z,13.90
2018-09-14T19:16:44.243Z,13.90
2018-09-14T19:19:13.532Z,13.90
2018-09-14T19:21:42.785Z,13.90
2018-09-14T19:24:12.028Z,13.90
2018-09-14T19:26:41.301Z,13.90
2018-09-14T19:29:10.648Z,13.90
2018-09-14T19:31:39.928Z,13.90
2018-09-14T19:34:09.253Z,13.80
2018-09-14T19:36:38.635Z,13.70
2018-09-14T19:39:10.956Z,13.70
2018-09-14T19:41:40.243Z,13.70
2018-09-14T19:44:09.556Z,13.60
2018-09-14T19:46:38.839Z,13.60
2018-09-14T19:49:08.080Z,13.50
2018-09-14T19:51:37.631Z,13.50
2018-09-14T19:54:06.939Z,13.40
2018-09-14T19:56:36.229Z,13.30
2018-09-14T19:59:05.620Z,13.30
2018-09-14T20:01:34.915Z,13.30
2018-09-14T20:04:04.201Z,13.20
2018-09-14T20:06:33.489Z,13.20
2018-09-14T20:09:03.837Z,13.20
2018-09-14T20:11:33.190Z,13.10
2018-09-14T20:14:02.713Z,13.10
2018-09-14T20:16:31.984Z,13.20
2018-09-14T20:19:01.273Z,13.10
2018-09-14T20:21:30.516Z,13.10
2018-09-14T20:24:00.106Z,13.10
2018-09-14T20:26:29.514Z,13.10
2018-09-14T20:28:58.851Z,13.10
2018-09-14T20:31:28.873Z,13.10
2018-09-14T20:33:58.280Z,13.00
2018-09-14T20:36:27.538Z,12.90
2018-09-14T20:38:57.597Z,12.90
2018-09-14T20:41:26.880Z,12.80
2018-09-14T20:43:56.171Z,12.80
2018-09-14T20:46:25.567Z,12.70
2018-09-14T20:48:54.808Z,12.60
2018-09-14T20:51:24.125Z,12.60
2018-09-14T20:53:53.380Z,12.50
2018-09-14T20:56:22.616Z,12.50
2018-09-14T20:58:51.945Z,12.40
2018-09-14T21:01:21.272Z,12.40
2018-09-14T21:03:50.587Z,12.40
2018-09-14T21:06:19.835Z,12.40
2018-09-14T21:08:49.076Z,12.30
2018-09-14T21:11:18.428Z,12.30
2018-09-14T21:13:47.741Z,12.20
2018-09-14T21:16:16.932Z,12.10
2018-09-14T21:18:46.231Z,12.60
2018-09-14T21:21:15.541Z,12.10
2018-09-14T21:23:45.495Z,12.10
2018-09-14T21:26:14.730Z,12.00
2018-09-14T21:28:43.952Z,12.10
2018-09-14T21:31:13.908Z,12.10
2018-09-14T21:33:43.177Z,12.10
2018-09-14T21:36:12.413Z,12.10
2018-09-14T21:38:41.665Z,12.00
2018-09-14T21:41:10.894Z,12.10
2018-09-14T21:43:40.132Z,12.10
2018-09-14T21:46:09.343Z,12.00
2018-09-14T21:48:38.605Z,11.90
2018-09-14T21:51:07.838Z,11.90
2018-09-14T21:53:37.189Z,11.80
2018-09-14T21:56:06.476Z,11.90
2018-09-14T21:58:35.970Z,11.80
2018-09-14T22:01:08.481Z,11.90
2018-09-14T22:03:37.806Z,11.80
2018-09-14T22:06:07.556Z,11.80
2018-09-14T22:08:36.807Z,11.90
2018-09-14T22:11:06.328Z,11.90
2018-09-14T22:13:35.603Z,11.80
2018-09-14T22:16:04.896Z,11.90
2018-09-14T22:18:34.115Z,12.00
2018-09-14T22:21:03.371Z,12.00
2018-09-14T22:23:32.664Z,12.10
2018-09-14T22:26:01.879Z,12.10
2018-09-14T22:28:31.095Z,12.20
2018-09-14T22:31:00.452Z,12.30
2018-09-14T22:33:29.679Z,12.40
2018-09-14T22:35:59.137Z,12.40
2018-09-14T22:38:28.355Z,12.40
2018-09-14T22:40:58.300Z,12.40
2018-09-14T22:43:27.512Z,12.40
2018-09-14T22:45:56.801Z,12.50
2018-09-14T22:48:26.044Z,12.50
2018-09-14T22:50:55.297Z,12.60
2018-09-14T22:53:24.552Z,12.60
2018-09-14T22:55:54.675Z,12.70
2018-09-14T22:58:23.870Z,12.70
2018-09-14T23:00:58.612Z,12.70
2018-09-14T23:03:27.791Z,12.70
2018-09-14T23:05:57.083Z,12.70
2018-09-14T23:08:26.389Z,12.60
2018-09-14T23:10:55.641Z,12.60
2018-09-14T23:13:24.928Z,12.50
2018-09-14T23:16:00.214Z,12.40
2018-09-14T23:18:30.519Z,12.30
2018-09-14T23:21:00.335Z,12.20
2018-09-14T23:23:29.603Z,12.20
2018-09-14T23:26:08.647Z,12.10
2018-09-14T23:28:37.891Z,12.10
2018-09-14T23:31:07.156Z,12.10
2018-09-14T23:33:36.468Z,12.10
2018-09-14T23:36:05.723Z,12.10
2018-09-14T23:38:35.534Z,12.00
2018-09-14T23:41:04.763Z,12.00
2018-09-14T23:43:33.963Z,12.00
2018-09-14T23:46:03.307Z,11.90
2018-09-14T23:48:32.557Z,11.80
2018-09-14T23:51:02.505Z,11.80
2018-09-14T23:53:31.768Z,11.70
2018-09-14T23:56:01.045Z,11.70
2018-09-14T23:58:30.301Z,11.60
